Time;durP1;ratioP1;P1;durP2;ratioP2;P2;SDS_P1;SDS_P2;PMS_P1;PMS_P2;Temp;Humidity;BMP_temperature;BMP_pressure;BME280_temperature;BME280_humidity;BME280_pressure;Samples;Min_cycle;Max_cycle;Signal;HPM_P1;HPM_P2
2023/09/13 00:00:51;;;;;;;2.35;1.58;;;10.30;99.90;;;;;;5055344;28;20220;-76
2023/09/13 00:03:16;;;;;;;0.60;0.60;;;10.30;99.90;;;;;;5073039;28;20211;-76
2023/09/13 00:05:42;;;;;;;0.70;0.70;;;10.30;99.90;;;;;;5072668;28;20233;-76
2023/09/13 00:08:08;;;;;;;0.50;0.50;;;10.30;99.90;;;;;;5073075;28;20758;-76
2023/09/13 00:10:34;;;;;;;0.60;0.60;;;10.30;99.90;;;;;;5073016;28;20211;-75
2023/09/13 00:13:00;;;;;;;0.60;0.60;;;10.30;99.90;;;;;;5072982;28;20212;-76
2023/09/13 00:15:25;;;;;;;1.05;0.98;;;10.30;99.90;;;;;;5072803;28;20199;-75
2023/09/13 00:17:51;;;;;;;0.60;0.60;;;10.20;99.90;;;;;;5072994;28;20199;-75
2023/09/13 00:20:17;;;;;;;0.60;0.60;;;10.20;99.90;;;;;;5054975;28;20565;-76
2023/09/13 00:22:45;;;;;;;0.57;0.57;;;10.10;99.90;;;;;;5072285;28;20211;-73
2023/09/13 00:25:11;;;;;;;0.60;0.60;;;10.10;99.90;;;;;;5054903;28;20196;-74
2023/09/13 00:27:36;;;;;;;0.60;0.60;;;10.00;99.90;;;;;;5072687;28;20260;-74
2023/09/13 00:30:02;;;;;;;0.60;0.60;;;10.00;99.90;;;;;;5072466;28;20196;-74
2023/09/13 00:32:28;;;;;;;0.60;0.60;;;10.00;99.90;;;;;;5072477;28;20207;-74
2023/09/13 00:34:54;;;;;;;0.60;0.60;;;10.00;99.90;;;;;;5072479;28;20189;-74
2023/09/13 00:37:19;;;;;;;0.50;0.50;;;10.00;99.90;;;;;;5054388;28;20281;-73
2023/09/13 00:39:45;;;;;;;0.60;0.60;;;10.00;99.90;;;;;;5072589;28;20611;-73
2023/09/13 00:42:10;;;;;;;0.65;0.65;;;10.00;99.90;;;;;;5072178;28;20687;-73
2023/09/13 00:44:36;;;;;;;0.60;0.60;;;10.00;99.90;;;;;;5072154;28;20201;-74
2023/09/13 00:47:02;;;;;;;1.35;0.73;;;10.00;99.90;;;;;;5072429;28;20185;-74
2023/09/13 00:49:28;;;;;;;1.08;0.80;;;10.00;99.90;;;;;;5072312;28;20588;-74
2023/09/13 00:51:57;;;;;;;0.60;0.60;;;10.00;99.90;;;;;;5054476;28;20205;-74
2023/09/13 00:54:23;;;;;;;0.60;0.60;;;10.00;99.90;;;;;;5072076;28;20207;-74
2023/09/13 00:56:49;;;;;;;0.60;0.60;;;10.00;99.90;;;;;;5072197;28;20709;-74
2023/09/13 00:59:14;;;;;;;1.33;0.98;;;10.00;99.90;;;;;;5072292;28;20196;-74
2023/09/13 01:01:40;;;;;;;0.60;0.60;;;10.00;99.90;;;;;;5072102;28;20214;-75
2023/09/13 01:04:07;;;;;;;0.60;0.60;;;10.00;99.90;;;;;;5053598;28;20259;-74
2023/09/13 01:06:33;;;;;;;0.70;0.70;;;10.10;99.90;;;;;;5071971;28;20267;-75
2023/09/13 01:08:59;;;;;;;0.60;0.60;;;10.10;99.90;;;;;;5071710;28;20747;-74
2023/09/13 01:11:26;;;;;;;0.70;0.70;;;10.00;99.90;;;;;;5071703;28;20272;-74
2023/09/13 01:13:52;;;;;;;0.50;0.50;;;10.10;99.90;;;;;;5053216;28;20201;-74
2023/09/13 01:16:41;;;;;;;0.60;0.60;;;10.00;99.90;;;;;;5071858;28;20193;-75
2023/09/13 01:19:47;;;;;;;0.60;0.60;;;10.00;99.90;;;;;;5071431;28;20220;-74
2023/09/13 01:22:13;;;;;;;0.70;0.70;;;9.90;99.90;;;;;;5071971;28;20567;-74
2023/09/13 01:25:17;;;;;;;0.60;0.60;;;9.90;99.90;;;;;;5071718;28;20193;-74
2023/09/13 01:27:54;;;;;;;0.60;0.60;;;9.90;99.90;;;;;;5031847;28;20200;-74
2023/09/13 01:30:21;;;;;;;0.60;0.60;;;9.90;99.90;;;;;;5071337;28;20218;-75
2023/09/13 01:32:47;;;;;;;0.70;0.70;;;9.90;99.90;;;;;;5072254;28;20195;-71
2023/09/13 01:35:12;;;;;;;0.60;0.60;;;9.90;99.90;;;;;;5071800;28;20593;-70
2023/09/13 01:37:38;;;;;;;0.55;0.55;;;9.90;99.90;;;;;;5053793;28;20651;-70
2023/09/13 01:40:06;;;;;;;0.60;0.60;;;9.80;99.90;;;;;;5053790;28;20208;-70
2023/09/13 01:42:35;;;;;;;0.60;0.60;;;9.80;99.90;;;;;;5071562;28;20270;-70
2023/09/13 01:45:02;;;;;;;5.25;2.78;;;9.80;99.90;;;;;;5071679;28;20203;-71
2023/09/13 01:47:30;;;;;;;0.60;0.60;;;9.80;99.90;;;;;;5071841;28;20707;-70
2023/09/13 01:49:57;;;;;;;0.70;0.70;;;9.80;99.90;;;;;;5053723;28;20659;-70
2023/09/13 01:52:23;;;;;;;0.60;0.60;;;9.80;99.90;;;;;;5071579;28;20280;-70
2023/09/13 01:54:49;;;;;;;0.60;0.60;;;9.80;99.90;;;;;;5071826;28;20232;-71
2023/09/13 01:57:14;;;;;;;0.60;0.60;;;9.80;99.90;;;;;;5071684;28;20185;-70
2023/09/13 01:59:40;;;;;;;0.60;0.60;;;9.70;99.90;;;;;;5071520;28;20299;-70
2023/09/13 02:02:05;;;;;;;0.60;0.60;;;9.70;99.90;;;;;;5053764;28;20233;-75
2023/09/13 02:04:33;;;;;;;0.60;0.60;;;9.70;99.90;;;;;;5071309;28;20224;-75
2023/09/13 02:07:00;;;;;;;0.90;0.90;;;9.70;99.90;;;;;;5053642;28;20192;-75
2023/09/13 02:09:26;;;;;;;0.60;0.60;;;9.70;99.90;;;;;;5071761;28;20209;-75
2023/09/13 02:11:52;;;;;;;0.57;0.57;;;9.70;99.90;;;;;;5071667;28;20618;-75
2023/09/13 02:14:17;;;;;;;0.60;0.60;;;9.70;99.90;;;;;;5071070;28;20236;-75
2023/09/13 02:16:43;;;;;;;0.60;0.60;;;9.80;99.90;;;;;;5071370;28;20226;-75
2023/09/13 02:19:09;;;;;;;0.60;0.60;;;9.80;99.90;;;;;;5071502;28;20208;-75
2023/09/13 02:21:35;;;;;;;0.70;0.70;;;9.80;99.90;;;;;;5074958;28;20662;-76
2023/09/13 02:24:00;;;;;;;0.60;0.60;;;9.80;99.90;;;;;;5074995;28;20231;-75
2023/09/13 02:26:26;;;;;;;0.55;0.55;;;9.80;99.90;;;;;;5074986;28;20229;-75
2023/09/13 02:28:53;;;;;;;0.60;0.60;;;9.90;99.90;;;;;;5074782;28;20211;-76
2023/09/13 02:31:26;;;;;;;0.60;0.60;;;9.90;99.90;;;;;;5074978;28;20199;-75
2023/09/13 02:33:53;;;;;;;0.60;0.60;;;9.90;99.90;;;;;;5074956;28;20205;-76
2023/09/13 02:36:19;;;;;;;0.60;0.60;;;9.90;99.90;;;;;;5056702;28;20205;-75
2023/09/13 02:38:45;;;;;;;0.60;0.60;;;9.80;99.90;;;;;;5056931;28;20215;-76
2023/09/13 02:41:11;;;;;;;0.60;0.60;;;9.90;99.90;;;;;;5074858;28;20197;-75
2023/09/13 02:43:39;;;;;;;0.60;0.60;;;9.90;99.90;;;;;;5074932;28;20216;-76
2023/09/13 02:46:05;;;;;;;0.50;0.50;;;9.80;99.90;;;;;;5074517;28;20221;-75
2023/09/13 02:48:30;;;;;;;0.70;0.70;;;9.90;99.90;;;;;;5074694;28;20240;-75
2023/09/13 02:50:57;;;;;;;0.60;0.60;;;9.90;99.90;;;;;;5074593;28;20189;-74
2023/09/13 02:53:23;;;;;;;0.70;0.70;;;9.90;99.90;;;;;;5074342;28;20200;-75
2023/09/13 02:55:48;;;;;;;0.50;0.50;;;9.90;99.90;;;;;;5074468;28;20219;-75
2023/09/13 02:58:14;;;;;;;0.60;0.60;;;9.80;99.90;;;;;;5074343;28;20203;-75
2023/09/13 03:00:43;;;;;;;0.60;0.60;;;9.80;99.90;;;;;;5074244;28;20280;-76
2023/09/13 03:03:09;;;;;;;1.55;0.90;;;9.90;99.90;;;;;;5055493;28;20579;-75
2023/09/13 03:05:36;;;;;;;0.60;0.60;;;9.90;99.90;;;;;;5074106;28;20264;-75
2023/09/13 03:08:02;;;;;;;0.60;0.60;;;9.90;99.90;;;;;;5074483;28;20678;-75
2023/09/13 03:10:28;;;;;;;0.60;0.60;;;9.90;99.90;;;;;;5073831;28;20257;-76
2023/09/13 03:12:54;;;;;;;0.70;0.70;;;9.90;99.90;;;;;;5074370;28;20266;-75
2023/09/13 03:15:20;;;;;;;0.60;0.60;;;9.80;99.90;;;;;;5073954;28;20192;-75
2023/09/13 03:17:45;;;;;;;2.75;1.05;;;9.80;99.90;;;;;;5074241;28;20386;-76
2023/09/13 03:20:12;;;;;;;0.60;0.60;;;9.80;99.90;;;;;;5073977;28;20203;-76
2023/09/13 03:22:37;;;;;;;0.60;0.60;;;9.80;99.90;;;;;;5073766;28;20204;-75
2023/09/13 03:25:05;;;;;;;0.50;0.50;;;9.70;99.90;;;;;;5073915;28;20185;-76
2023/09/13 03:27:32;;;;;;;0.65;0.65;;;9.70;99.90;;;;;;5073978;28;20215;-76
2023/09/13 03:30:00;;;;;;;0.60;0.60;;;9.70;99.90;;;;;;5073702;28;20275;-75
2023/09/13 03:32:28;;;;;;;0.70;0.70;;;9.60;99.90;;;;;;5073236;28;20272;-75
2023/09/13 03:34:53;;;;;;;0.55;0.55;;;9.60;99.90;;;;;;5073749;28;20220;-75
2023/09/13 03:37:19;;;;;;;0.63;0.63;;;9.50;99.90;;;;;;5073575;28;20614;-75
2023/09/13 03:39:45;;;;;;;0.75;0.75;;;9.50;99.90;;;;;;5073783;28;20228;-76
2023/09/13 03:42:10;;;;;;;0.60;0.60;;;9.50;99.90;;;;;;5073284;28;20208;-75
2023/09/13 03:44:36;;;;;;;0.60;0.60;;;9.60;99.90;;;;;;5055193;28;21247;-76
2023/09/13 03:47:02;;;;;;;0.65;0.65;;;9.60;99.90;;;;;;5073523;28;20220;-75
2023/09/13 03:49:27;;;;;;;0.60;0.60;;;9.50;99.90;;;;;;5073338;28;20197;-76
2023/09/13 03:51:53;;;;;;;0.60;0.60;;;9.50;99.90;;;;;;5073540;28;20540;-75
2023/09/13 03:54:18;;;;;;;0.60;0.60;;;9.50;99.90;;;;;;5073693;28;20283;-74
2023/09/13 03:56:44;;;;;;;0.60;0.60;;;9.60;99.90;;;;;;5055549;28;20288;-75
2023/09/13 03:59:10;;;;;;;0.50;0.50;;;9.60;99.90;;;;;;5055507;28;20230;-75
2023/09/13 04:01:35;;;;;;;0.50;0.50;;;9.60;99.90;;;;;;5073216;28;20279;-74
2023/09/13 04:04:01;;;;;;;0.57;0.57;;;9.60;99.90;;;;;;5073024;28;20224;-75
2023/09/13 04:06:27;;;;;;;0.47;0.47;;;9.60;99.90;;;;;;5072602;28;20284;-74
2023/09/13 04:08:52;;;;;;;0.60;0.60;;;9.70;99.90;;;;;;5073040;28;20193;-74
2023/09/13 04:11:18;;;;;;;0.73;0.73;;;9.70;99.90;;;;;;5070942;28;20209;-74
2023/09/13 04:13:44;;;;;;;0.60;0.60;;;9.60;99.90;;;;;;5051395;28;20214;-74
2023/09/13 04:16:14;;;;;;;0.60;0.60;;;9.60;99.90;;;;;;5052673;28;20276;-74
2023/09/13 04:18:40;;;;;;;0.50;0.50;;;9.60;99.90;;;;;;5052851;28;20708;-75
2023/09/13 04:21:05;;;;;;;0.50;0.50;;;9.60;99.90;;;;;;5052624;28;20225;-74
2023/09/13 04:23:31;;;;;;;0.60;0.60;;;9.50;99.90;;;;;;5052610;28;20205;-74
2023/09/13 04:25:57;;;;;;;0.88;0.88;;;9.50;99.90;;;;;;5052777;28;20189;-73
2023/09/13 04:28:22;;;;;;;0.60;0.60;;;9.50;99.90;;;;;;5052787;28;20621;-74
2023/09/13 04:30:48;;;;;;;0.60;0.60;;;9.30;99.90;;;;;;5071830;28;20197;-74
2023/09/13 04:33:14;;;;;;;0.80;0.80;;;9.30;99.90;;;;;;5072741;28;20188;-75
2023/09/13 04:35:40;;;;;;;0.65;0.65;;;9.20;99.90;;;;;;5072454;28;20267;-75
2023/09/13 04:38:06;;;;;;;0.50;0.50;;;9.20;99.90;;;;;;5072905;28;20220;-75
2023/09/13 04:40:32;;;;;;;0.60;0.60;;;9.10;99.90;;;;;;5055133;28;20201;-75
2023/09/13 04:43:06;;;;;;;0.60;0.60;;;9.00;99.90;;;;;;5072141;28;20599;-75
2023/09/13 04:45:35;;;;;;;0.60;0.60;;;9.00;99.90;;;;;;5071797;28;20705;-74
2023/09/13 04:48:01;;;;;;;0.60;0.60;;;9.00;99.90;;;;;;5052575;28;20182;-75
2023/09/13 04:50:27;;;;;;;0.60;0.60;;;8.90;99.90;;;;;;5052301;28;20224;-75
2023/09/13 04:52:53;;;;;;;0.60;0.60;;;8.90;99.90;;;;;;5052368;28;20584;-74
2023/09/13 04:55:20;;;;;;;0.70;0.70;;;8.90;99.90;;;;;;5052219;28;20204;-74
2023/09/13 04:57:45;;;;;;;0.60;0.60;;;8.80;99.90;;;;;;5052337;28;20718;-75
2023/09/13 05:00:14;;;;;;;0.60;0.60;;;8.80;99.90;;;;;;5052287;28;20272;-74
2023/09/13 05:02:39;;;;;;;0.63;0.63;;;8.80;99.90;;;;;;5052208;28;20205;-71
2023/09/13 05:05:06;;;;;;;0.80;0.80;;;8.90;99.90;;;;;;5052066;28;20225;-70
2023/09/13 05:07:31;;;;;;;0.70;0.70;;;9.00;99.90;;;;;;5052061;28;20197;-70
2023/09/13 05:09:57;;;;;;;0.65;0.65;;;9.00;99.90;;;;;;5052170;28;20185;-70
2023/09/13 05:12:23;;;;;;;0.60;0.60;;;9.10;99.90;;;;;;5051913;28;20200;-70
2023/09/13 05:14:48;;;;;;;0.60;0.60;;;9.10;99.90;;;;;;5052093;28;20200;-70
2023/09/13 05:17:14;;;;;;;0.60;0.60;;;9.10;99.90;;;;;;5052112;28;20266;-71
2023/09/13 05:19:40;;;;;;;0.70;0.70;;;9.10;99.90;;;;;;5051660;28;20197;-70
2023/09/13 05:22:05;;;;;;;0.60;0.60;;;9.10;99.90;;;;;;5071993;28;20364;-70
2023/09/13 05:24:31;;;;;;;0.60;0.60;;;9.10;99.90;;;;;;5071856;28;20234;-70
2023/09/13 05:27:01;;;;;;;0.70;0.70;;;9.20;99.90;;;;;;5071859;28;20193;-70
2023/09/13 05:29:27;;;;;;;0.60;0.60;;;9.20;99.90;;;;;;5071901;28;20197;-70
2023/09/13 05:31:53;;;;;;;0.60;0.60;;;9.20;99.90;;;;;;5072120;28;20532;-75
2023/09/13 05:34:18;;;;;;;1.90;0.85;;;9.20;99.90;;;;;;5071952;28;20228;-75
2023/09/13 05:36:44;;;;;;;0.57;0.57;;;9.20;99.90;;;;;;5071940;28;20184;-75
2023/09/13 05:39:10;;;;;;;0.60;0.60;;;9.30;99.90;;;;;;5053976;28;20192;-75
2023/09/13 05:41:37;;;;;;;0.60;0.60;;;9.50;99.90;;;;;;5071438;28;20279;-75
2023/09/13 05:44:03;;;;;;;0.65;0.65;;;9.50;99.90;;;;;;5072161;28;20196;-75
2023/09/13 05:46:29;;;;;;;0.60;0.60;;;9.70;99.90;;;;;;5071637;28;20204;-75
2023/09/13 05:48:54;;;;;;;0.55;0.55;;;9.80;99.90;;;;;;5071849;28;20659;-74
2023/09/13 05:51:20;;;;;;;0.60;0.60;;;10.10;99.90;;;;;;5071603;28;20185;-75
2023/09/13 05:53:45;;;;;;;0.60;0.60;;;10.30;99.90;;;;;;5072901;28;20259;-75
2023/09/13 05:56:11;;;;;;;0.60;0.60;;;10.40;99.90;;;;;;5057716;28;20193;-75
2023/09/13 05:58:38;;;;;;;0.50;0.50;;;10.50;99.90;;;;;;5075395;28;20197;-75
2023/09/13 06:01:04;;;;;;;0.60;0.60;;;10.50;99.90;;;;;;5075539;28;20269;-75
2023/09/13 06:03:32;;;;;;;0.52;0.52;;;10.40;99.90;;;;;;5075026;28;20200;-75
2023/09/13 06:05:57;;;;;;;0.60;0.60;;;10.40;99.90;;;;;;5075458;28;20243;-75
2023/09/13 06:08:23;;;;;;;0.60;0.60;;;10.40;99.90;;;;;;5075247;28;20590;-75
2023/09/13 06:10:49;;;;;;;0.50;0.50;;;10.40;99.90;;;;;;5075523;28;20200;-75
2023/09/13 06:13:17;;;;;;;0.60;0.60;;;10.50;99.90;;;;;;5075296;28;20536;-75
2023/09/13 06:15:43;;;;;;;0.50;0.50;;;10.60;99.90;;;;;;5075169;28;20726;-75
2023/09/13 06:18:08;;;;;;;0.50;0.50;;;10.70;99.90;;;;;;5075017;28;20212;-75
2023/09/13 06:20:34;;;;;;;0.60;0.60;;;10.70;99.90;;;;;;5074876;28;20197;-75
2023/09/13 06:23:00;;;;;;;0.50;0.50;;;10.80;99.90;;;;;;5074926;28;20236;-75
2023/09/13 06:25:25;;;;;;;0.70;0.70;;;10.80;99.90;;;;;;5074849;28;20189;-74
2023/09/13 06:27:51;;;;;;;0.75;0.75;;;10.80;99.90;;;;;;5075228;28;20271;-75
2023/09/13 06:30:17;;;;;;;0.60;0.60;;;10.80;99.90;;;;;;5074987;28;20618;-75
2023/09/13 06:32:43;;;;;;;0.60;0.60;;;10.80;99.90;;;;;;5074919;28;20193;-75
2023/09/13 06:35:13;;;;;;;0.60;0.60;;;10.80;99.90;;;;;;5075030;28;20200;-74
2023/09/13 06:37:39;;;;;;;0.60;0.60;;;10.90;99.90;;;;;;5074865;28;20236;-75
2023/09/13 06:40:07;;;;;;;0.85;0.85;;;10.90;99.90;;;;;;5074922;28;20188;-75
2023/09/13 06:42:33;;;;;;;0.60;0.60;;;11.00;99.90;;;;;;5074665;28;20205;-72
2023/09/13 06:44:59;;;;;;;0.63;0.63;;;11.10;99.90;;;;;;5074682;28;20204;-72
2023/09/13 06:47:28;;;;;;;0.50;0.50;;;11.10;99.90;;;;;;5074627;28;20532;-73
2023/09/13 06:49:57;;;;;;;0.63;0.63;;;11.20;99.90;;;;;;5074661;28;20185;-71
2023/09/13 06:52:22;;;;;;;0.60;0.60;;;11.20;99.90;;;;;;5074623;28;20232;-71
2023/09/13 06:54:48;;;;;;;0.60;0.60;;;11.40;99.90;;;;;;5074701;28;20274;-71
2023/09/13 06:57:15;;;;;;;0.50;0.50;;;11.50;99.90;;;;;;5074376;28;20331;-71
2023/09/13 06:59:40;;;;;;;0.50;0.50;;;11.50;99.90;;;;;;5073481;28;20200;-71
2023/09/13 07:02:08;;;;;;;0.70;0.70;;;11.50;99.90;;;;;;5074404;28;20205;-71
2023/09/13 07:04:34;;;;;;;0.70;0.70;;;11.60;99.90;;;;;;5074246;28;20224;-71
2023/09/13 07:06:59;;;;;;;0.60;0.60;;;11.60;99.90;;;;;;5057041;28;20204;-71
2023/09/13 07:09:25;;;;;;;0.60;0.60;;;11.60;99.90;;;;;;5058112;28;20231;-72
2023/09/13 07:11:56;;;;;;;0.63;0.63;;;11.70;99.90;;;;;;5062009;28;20594;-71
2023/09/13 07:14:22;;;;;;;0.57;0.57;;;11.70;99.90;;;;;;5073633;28;20201;-71
2023/09/13 07:16:48;;;;;;;0.60;0.60;;;11.80;99.90;;;;;;5074108;28;20184;-72
2023/09/13 07:19:14;;;;;;;0.40;0.40;;;11.90;99.90;;;;;;5073820;28;20196;-72
2023/09/13 07:21:39;;;;;;;0.60;0.60;;;12.00;99.90;;;;;;5073987;28;21606;-72
2023/09/13 07:24:06;;;;;;;0.57;0.57;;;12.10;99.90;;;;;;5071087;28;20213;-71
2023/09/13 07:26:31;;;;;;;0.55;0.55;;;12.20;99.90;;;;;;5058493;28;20648;-71
2023/09/13 07:28:57;;;;;;;0.50;0.50;;;12.30;99.90;;;;;;5073965;28;20232;-72
2023/09/13 07:31:22;;;;;;;0.60;0.60;;;12.30;99.90;;;;;;5073763;28;20363;-72
2023/09/13 07:33:48;;;;;;;0.50;0.50;;;12.40;99.90;;;;;;5054154;28;20217;-72
2023/09/13 07:36:14;;;;;;;0.50;0.50;;;12.50;99.90;;;;;;5053435;28;20198;-72
2023/09/13 07:38:39;;;;;;;0.60;0.60;;;12.60;99.90;;;;;;5053321;28;20570;-72
2023/09/13 07:41:05;;;;;;;0.70;0.70;;;12.70;99.90;;;;;;5054748;28;20198;-73
2023/09/13 07:43:31;;;;;;;0.50;0.50;;;12.80;99.90;;;;;;5073231;28;20205;-71
2023/09/13 07:45:58;;;;;;;0.50;0.50;;;12.90;99.90;;;;;;5073473;28;20196;-72
2023/09/13 07:48:26;;;;;;;0.50;0.50;;;13.10;99.90;;;;;;5073266;28;20679;-72
2023/09/13 07:50:52;;;;;;;0.50;0.50;;;13.10;99.90;;;;;;5058479;28;20185;-72
2023/09/13 07:53:17;;;;;;;0.50;0.50;;;13.20;99.90;;;;;;5053552;28;20266;-73
2023/09/13 07:55:43;;;;;;;0.50;0.50;;;13.20;99.90;;;;;;5053268;28;20666;-72
2023/09/13 07:58:09;;;;;;;0.70;0.70;;;13.30;99.90;;;;;;5053553;28;20220;-73
2023/09/13 08:00:35;;;;;;;0.50;0.50;;;13.40;99.90;;;;;;5053223;28;20649;-73
2023/09/13 08:03:04;;;;;;;0.60;0.60;;;13.50;99.90;;;;;;5053083;28;20259;-73
2023/09/13 08:05:30;;;;;;;0.50;0.50;;;13.50;99.90;;;;;;5072559;28;20676;-72
2023/09/13 08:08:00;;;;;;;0.50;0.50;;;13.60;99.90;;;;;;5057953;28;20683;-72
2023/09/13 08:10:26;;;;;;;0.40;0.40;;;13.70;99.90;;;;;;5053028;28;20224;-72
2023/09/13 08:12:52;;;;;;;0.60;0.60;;;13.80;99.90;;;;;;5053249;28;20225;-72
2023/09/13 08:15:18;;;;;;;0.43;0.43;;;13.90;99.90;;;;;;5055581;28;20197;-72
2023/09/13 08:17:43;;;;;;;0.40;0.40;;;14.10;99.90;;;;;;5072911;28;20189;-72
2023/09/13 08:20:10;;;;;;;0.40;0.40;;;14.00;99.90;;;;;;5072832;28;20288;-72
2023/09/13 08:22:37;;;;;;;0.50;0.50;;;14.20;99.90;;;;;;5072768;28;20196;-71
2023/09/13 08:25:03;;;;;;;0.50;0.50;;;14.20;99.90;;;;;;5072790;28;20196;-72
2023/09/13 08:27:29;;;;;;;0.60;0.60;;;14.30;99.90;;;;;;5072713;28;20193;-72
2023/09/13 08:29:55;;;;;;;0.50;0.50;;;14.50;99.90;;;;;;5072791;28;20641;-72
2023/09/13 08:32:21;;;;;;;0.50;0.50;;;14.80;99.90;;;;;;5072407;28;20192;-72
2023/09/13 08:34:50;;;;;;;0.40;0.40;;;15.00;99.90;;;;;;5072640;28;20529;-72
2023/09/13 08:37:16;;;;;;;0.45;0.45;;;15.10;99.90;;;;;;5072551;28;20196;-72
2023/09/13 08:39:42;;;;;;;0.50;0.50;;;15.00;99.90;;;;;;5072463;28;20269;-72
2023/09/13 08:42:10;;;;;;;0.50;0.50;;;15.20;99.90;;;;;;5071853;28;20208;-72
2023/09/13 08:44:37;;;;;;;0.50;0.50;;;15.40;99.90;;;;;;5072262;28;20196;-71
2023/09/13 08:47:04;;;;;;;0.55;0.55;;;15.40;99.90;;;;;;5072581;28;20180;-71
2023/09/13 08:49:32;;;;;;;0.45;0.45;;;15.50;99.90;;;;;;5072375;28;20204;-71
2023/09/13 08:51:58;;;;;;;0.30;0.30;;;15.60;99.90;;;;;;5071681;28;20181;-72
2023/09/13 08:54:25;;;;;;;0.50;0.50;;;15.60;99.90;;;;;;5072253;28;20199;-72
2023/09/13 08:56:52;;;;;;;0.50;0.50;;;15.70;99.90;;;;;;5072260;28;20242;-71
2023/09/13 08:59:17;;;;;;;0.55;0.50;;;15.60;99.90;;;;;;5072321;28;20555;-72
2023/09/13 09:01:51;;;;;;;0.30;0.30;;;15.70;99.90;;;;;;5072362;28;20197;-72
2023/09/13 09:04:18;;;;;;;0.30;0.30;;;15.70;99.90;;;;;;5072135;28;20223;-72
2023/09/13 09:06:45;;;;;;;0.30;0.30;;;15.70;99.90;;;;;;5072357;28;20180;-72
2023/09/13 09:09:13;;;;;;;0.35;0.35;;;15.80;99.90;;;;;;5072255;28;20223;-72
2023/09/13 09:11:42;;;;;;;0.57;0.47;;;16.20;99.90;;;;;;5071825;28;20197;-72
2023/09/13 09:14:11;;;;;;;0.35;0.35;;;16.70;99.90;;;;;;5072052;28;20185;-72
2023/09/13 09:16:40;;;;;;;0.52;0.52;;;16.90;99.90;;;;;;5071973;28;20283;-72
2023/09/13 09:19:06;;;;;;;0.43;0.43;;;17.00;99.90;;;;;;5071898;28;20200;-73
2023/09/13 09:21:34;;;;;;;0.40;0.40;;;17.20;99.90;;;;;;5066972;28;20671;-72
2023/09/13 09:24:00;;;;;;;0.30;0.30;;;17.40;99.90;;;;;;5051119;28;20672;-72
2023/09/13 09:26:26;;;;;;;0.40;0.40;;;17.60;99.90;;;;;;5050406;28;20208;-72
2023/09/13 09:28:54;;;;;;;0.95;0.55;;;18.20;99.90;;;;;;5055772;28;20196;-72
2023/09/13 09:31:25;;;;;;;0.32;0.32;;;18.60;99.90;;;;;;5078204;28;20603;-72
2023/09/13 09:34:03;;;;;;;0.30;0.30;;;18.80;99.90;;;;;;5078729;28;20180;-72
2023/09/13 09:36:34;;;;;;;0.30;0.30;;;18.70;99.90;;;;;;5078141;28;20192;-71
2023/09/13 09:39:01;;;;;;;0.28;0.28;;;18.20;99.90;;;;;;5078509;28;20556;-71
2023/09/13 09:41:34;;;;;;;0.40;0.40;;;17.90;99.90;;;;;;5078394;28;20269;-72
2023/09/13 09:44:01;;;;;;;0.57;0.57;;;18.10;99.90;;;;;;5078503;28;20208;-71
2023/09/13 09:46:36;;;;;;;0.30;0.30;;;18.00;99.90;;;;;;5078414;28;20196;-72
2023/09/13 09:49:04;;;;;;;0.30;0.30;;;17.80;99.90;;;;;;5078443;28;20666;-73
2023/09/13 09:51:36;;;;;;;0.30;0.30;;;17.80;99.90;;;;;;5078361;28;20199;-72
2023/09/13 09:54:07;;;;;;;1.58;1.20;;;17.60;99.90;;;;;;5078365;28;20220;-72
2023/09/13 09:56:40;;;;;;;0.47;0.47;;;17.50;99.90;;;;;;5078159;28;20203;-72
2023/09/13 09:59:05;;;;;;;0.50;0.50;;;17.60;99.90;;;;;;5078394;28;20193;-72
2023/09/13 10:01:31;;;;;;;1.38;0.47;;;17.70;99.90;;;;;;5077892;28;20303;-73
2023/09/13 10:04:10;;;;;;;0.43;0.43;;;17.60;99.90;;;;;;5078272;28;20278;-73
2023/09/13 10:06:36;;;;;;;0.30;0.30;;;17.60;99.90;;;;;;5078219;28;20184;-73
2023/09/13 10:09:06;;;;;;;0.30;0.30;;;17.70;99.90;;;;;;5078057;28;20539;-74
2023/09/13 10:11:32;;;;;;;0.40;0.40;;;17.90;99.90;;;;;;5060184;28;20234;-75
2023/09/13 10:13:58;;;;;;;1.67;0.88;;;18.00;99.90;;;;;;5078233;28;20193;-71
2023/09/13 10:16:29;;;;;;;0.30;0.30;;;18.30;99.90;;;;;;5078076;28;20591;-70
2023/09/13 10:18:57;;;;;;;0.30;0.30;;;18.50;99.90;;;;;;5078177;28;20291;-71
2023/09/13 10:21:25;;;;;;;1.70;0.50;;;18.30;99.90;;;;;;5078095;28;20565;-72
2023/09/13 10:24:01;;;;;;;0.32;0.32;;;18.30;99.90;;;;;;5060204;28;20254;-70
2023/09/13 10:26:30;;;;;;;0.38;0.38;;;18.40;99.90;;;;;;5077878;28;20250;-70
2023/09/13 10:29:03;;;;;;;0.68;0.68;;;18.70;99.90;;;;;;5078162;28;20188;-71
2023/09/13 10:31:34;;;;;;;0.30;0.30;;;18.60;99.90;;;;;;5059886;28;20227;-70
2023/09/13 10:34:05;;;;;;;0.52;0.50;;;18.30;99.90;;;;;;5078003;28;20192;-71
2023/09/13 10:36:34;;;;;;;0.25;0.25;;;18.70;99.90;;;;;;5059382;28;20204;-71
2023/09/13 10:39:18;;;;;;;0.30;0.30;;;19.10;99.90;;;;;;5078083;28;20573;-71
2023/09/13 10:42:02;;;;;;;0.28;0.28;;;19.40;99.90;;;;;;5063342;28;20201;-70
2023/09/13 10:44:28;;;;;;;0.30;0.30;;;19.80;99.90;;;;;;5054791;28;20679;-72
2023/09/13 10:46:55;;;;;;;0.20;0.20;;;20.30;99.90;;;;;;5055446;28;20276;-70
2023/09/13 10:49:23;;;;;;;0.20;0.20;;;20.50;99.90;;;;;;5070510;28;20562;-70
2023/09/13 10:51:58;;;;;;;0.30;0.30;;;20.10;99.90;;;;;;5054692;28;20588;-70
2023/09/13 10:54:25;;;;;;;0.20;0.20;;;20.00;99.90;;;;;;5054374;28;20197;-70
2023/09/13 10:56:52;;;;;;;0.20;0.20;;;20.10;99.90;;;;;;5054694;28;20193;-70
2023/09/13 10:59:20;;;;;;;0.40;0.40;;;20.30;99.90;;;;;;5069513;28;20641;-70
2023/09/13 11:01:46;;;;;;;0.20;0.20;;;20.50;99.90;;;;;;5074651;28;20206;-70
2023/09/13 11:04:14;;;;;;;0.30;0.30;;;20.70;99.90;;;;;;5074054;28;20303;-70
2023/09/13 11:06:41;;;;;;;0.20;0.20;;;21.00;99.90;;;;;;5056361;28;20197;-70
2023/09/13 11:09:12;;;;;;;0.55;0.40;;;21.00;99.90;;;;;;5074404;28;20666;-70
2023/09/13 11:11:37;;;;;;;0.20;0.20;;;20.90;99.90;;;;;;5074184;28;20652;-70
2023/09/13 11:14:10;;;;;;;0.20;0.20;;;20.60;99.90;;;;;;5074359;28;20242;-70
2023/09/13 11:16:36;;;;;;;0.30;0.30;;;20.70;99.90;;;;;;5056679;28;20603;-70
2023/09/13 11:19:04;;;;;;;0.30;0.30;;;20.90;99.90;;;;;;5036204;28;20193;-70
2023/09/13 11:21:52;;;;;;;0.20;0.20;;;20.60;99.90;;;;;;5054104;28;20196;-70
2023/09/13 11:24:50;;;;;;;0.28;0.28;;;20.10;99.90;;;;;;5054287;28;20201;-76
2023/09/13 11:27:17;;;;;;;0.20;0.20;;;20.50;99.90;;;;;;5053860;28;20236;-76
2023/09/13 11:29:50;;;;;;;0.30;0.30;;;21.10;99.90;;;;;;5035636;28;20198;-76
2023/09/13 11:32:17;;;;;;;1.38;0.82;;;21.30;99.90;;;;;;5035938;28;20193;-76
2023/09/13 11:34:44;;;;;;;0.20;0.20;;;20.90;99.90;;;;;;5035734;28;20688;-76
2023/09/13 11:37:11;;;;;;;0.52;0.40;;;20.80;99.90;;;;;;5053846;28;20212;-76
2023/09/13 11:39:38;;;;;;;0.20;0.20;;;20.30;99.90;;;;;;5035740;28;20243;-75
2023/09/13 11:42:08;;;;;;;0.20;0.20;;;20.40;99.90;;;;;;5053498;28;20190;-76
2023/09/13 11:44:35;;;;;;;0.52;0.30;;;20.90;99.90;;;;;;5035539;28;20212;-76
2023/09/13 11:47:02;;;;;;;0.20;0.20;;;21.70;99.90;;;;;;5035707;28;20197;-76
2023/09/13 11:49:28;;;;;;;0.20;0.20;;;22.10;99.90;;;;;;5059461;28;20777;-76
2023/09/13 11:51:57;;;;;;;0.28;0.28;;;22.10;99.90;;;;;;5073366;28;20188;-76
2023/09/13 11:54:25;;;;;;;0.30;0.30;;;21.80;99.90;;;;;;5073398;28;20196;-75
2023/09/13 11:56:55;;;;;;;0.20;0.20;;;21.30;99.90;;;;;;5077316;28;20228;-75
2023/09/13 11:59:29;;;;;;;0.50;0.50;;;20.80;99.90;;;;;;5073256;28;20678;-75
2023/09/13 12:01:55;;;;;;;0.20;0.20;;;21.00;99.90;;;;;;5073174;28;20577;-75
2023/09/13 12:04:24;;;;;;;0.65;0.55;;;21.50;99.90;;;;;;5051691;28;20324;-74
2023/09/13 12:06:54;;;;;;;0.15;0.15;;;21.70;99.90;;;;;;5053349;28;20256;-74
2023/09/13 12:09:21;;;;;;;0.35;0.35;;;21.30;99.90;;;;;;5053417;28;20679;-75
2023/09/13 12:11:51;;;;;;;0.20;0.20;;;20.90;99.90;;;;;;5052541;28;20190;-75
2023/09/13 12:14:18;;;;;;;0.30;0.30;;;20.50;99.90;;;;;;5051843;28;20201;-75
2023/09/13 12:16:47;;;;;;;0.20;0.20;;;19.90;99.90;;;;;;5052976;28;20285;-75
2023/09/13 12:19:14;;;;;;;0.20;0.20;;;19.60;99.90;;;;;;5053463;28;20251;-75
2023/09/13 12:21:46;;;;;;;0.40;0.40;;;19.30;99.90;;;;;;5053302;28;20212;-76
2023/09/13 12:24:24;;;;;;;0.20;0.20;;;19.20;99.90;;;;;;5052816;28;20746;-76
2023/09/13 12:26:54;;;;;;;0.20;0.20;;;19.10;99.90;;;;;;5052228;28;20197;-76
2023/09/13 12:29:21;;;;;;;0.20;0.20;;;19.00;99.90;;;;;;5052552;28;20288;-75
2023/09/13 12:31:49;;;;;;;0.25;0.25;;;18.60;99.90;;;;;;5052911;28;20185;-71
2023/09/13 12:34:15;;;;;;;0.30;0.30;;;18.50;99.90;;;;;;5052822;28;20673;-73
2023/09/13 12:36:42;;;;;;;0.30;0.30;;;18.60;99.90;;;;;;5052489;28;20235;-73
2023/09/13 12:39:14;;;;;;;0.30;0.30;;;18.50;99.90;;;;;;5052637;28;20572;-73
2023/09/13 12:41:40;;;;;;;11.70;2.05;;;18.80;99.90;;;;;;5051527;28;20208;-73
2023/09/13 12:44:06;;;;;;;0.47;0.32;;;19.00;99.90;;;;;;5051326;28;20213;-73
2023/09/13 12:46:33;;;;;;;0.20;0.20;;;19.10;99.90;;;;;;5052031;28;20258;-74
2023/09/13 12:49:01;;;;;;;0.30;0.30;;;19.00;99.90;;;;;;5052503;28;20197;-74
2023/09/13 12:51:31;;;;;;;0.40;0.40;;;19.20;99.90;;;;;;5052314;28;20660;-73